sensor_id;sensor_type;location;lat;lon;timestamp;temperature;humidity
23102;DHT22;11720;51.214;22.574;2023-08-07T00:00:24;15.90;99.90
23102;DHT22;11720;51.214;22.574;2023-08-07T00:02:49;15.70;99.90
23102;DHT22;11720;51.214;22.574;2023-08-07T00:05:15;15.70;99.90
23102;DHT22;11720;51.214;22.574;2023-08-07T00:07:44;15.60;99.90
23102;DHT22;11720;51.214;22.574;2023-08-07T00:10:10;15.50;99.90
23102;DHT22;11720;51.214;22.574;2023-08-07T00:12:35;15.50;99.90
23102;DHT22;11720;51.214;22.574;2023-08-07T00:15:03;15.40;99.90
23102;DHT22;11720;51.214;22.574;2023-08-07T00:17:28;15.40;99.90
23102;DHT22;11720;51.214;22.574;2023-08-07T00:19:54;15.30;99.90
23102;DHT22;11720;51.214;22.574;2023-08-07T00:22:20;15.30;99.90
23102;DHT22;11720;51.214;22.574;2023-08-07T00:27:12;15.30;99.90
23102;DHT22;11720;51.214;22.574;2023-08-07T00:32:04;15.30;99.90
23102;DHT22;11720;51.214;22.574;2023-08-07T00:34:30;15.30;99.90
23102;DHT22;11720;51.214;22.574;2023-08-07T00:36:56;15.30;99.90
23102;DHT22;11720;51.214;22.574;2023-08-07T00:39:22;15.30;99.90
23102;DHT22;11720;51.214;22.574;2023-08-07T00:41:48;15.30;99.90
23102;DHT22;11720;51.214;22.574;2023-08-07T00:44:13;15.30;99.90
23102;DHT22;11720;51.214;22.574;2023-08-07T00:46:39;15.30;99.90
23102;DHT22;11720;51.214;22.574;2023-08-07T00:49:07;15.20;99.90
23102;DHT22;11720;51.214;22.574;2023-08-07T00:51:33;15.30;99.90
23102;DHT22;11720;51.214;22.574;2023-08-07T00:54:02;15.20;99.90
23102;DHT22;11720;51.214;22.574;2023-08-07T00:56:29;15.20;99.90
23102;DHT22;11720;51.214;22.574;2023-08-07T00:58:56;15.20;99.90
23102;DHT22;11720;51.214;22.574;2023-08-07T01:01:22;15.30;99.90
23102;DHT22;11720;51.214;22.574;2023-08-07T01:03:48;15.20;99.90
23102;DHT22;11720;51.214;22.574;2023-08-07T01:06:14;15.20;99.90
23102;DHT22;11720;51.214;22.574;2023-08-07T01:08:40;15.20;99.90
23102;DHT22;11720;51.214;22.574;2023-08-07T01:11:16;15.20;99.90
23102;DHT22;11720;51.214;22.574;2023-08-07T01:14:23;15.30;99.90
23102;DHT22;11720;51.214;22.574;2023-08-07T01:16:57;15.30;99.90
23102;DHT22;11720;51.214;22.574;2023-08-07T01:19:27;15.30;99.90
23102;DHT22;11720;51.214;22.574;2023-08-07T01:22:06;15.30;99.90
23102;DHT22;11720;51.214;22.574;2023-08-07T01:24:32;15.30;99.90
23102;DHT22;11720;51.214;22.574;2023-08-07T01:30:25;15.30;99.90
23102;DHT22;11720;51.214;22.574;2023-08-07T01:36:01;15.10;99.90
23102;DHT22;11720;51.214;22.574;2023-08-07T01:38:29;15.20;99.90
23102;DHT22;11720;51.214;22.574;2023-08-07T01:40:56;15.10;99.90
23102;DHT22;11720;51.214;22.574;2023-08-07T01:43:23;15.10;99.90
23102;DHT22;11720;51.214;22.574;2023-08-07T01:45:48;15.00;99.90
23102;DHT22;11720;51.214;22.574;2023-08-07T01:48:14;15.00;99.90
23102;DHT22;11720;51.214;22.574;2023-08-07T01:50:41;15.10;99.90
23102;DHT22;11720;51.214;22.574;2023-08-07T01:53:06;15.00;99.90
23102;DHT22;11720;51.214;22.574;2023-08-07T01:55:32;15.20;99.90
23102;DHT22;11720;51.214;22.574;2023-08-07T01:57:58;14.80;99.90
23102;DHT22;11720;51.214;22.574;2023-08-07T02:02:49;15.10;99.90
23102;DHT22;11720;51.214;22.574;2023-08-07T02:05:15;15.10;99.90
23102;DHT22;11720;51.214;22.574;2023-08-07T02:07:42;15.10;99.90
23102;DHT22;11720;51.214;22.574;2023-08-07T02:10:08;15.10;99.90
23102;DHT22;11720;51.214;22.574;2023-08-07T02:12:34;15.10;99.90
23102;DHT22;11720;51.214;22.574;2023-08-07T02:15:00;15.10;99.90
23102;DHT22;11720;51.214;22.574;2023-08-07T02:17:29;15.10;99.90
23102;DHT22;11720;51.214;22.574;2023-08-07T02:19:58;15.10;99.90
23102;DHT22;11720;51.214;22.574;2023-08-07T02:22:24;15.10;99.90
23102;DHT22;11720;51.214;22.574;2023-08-07T02:24:50;15.20;99.90
23102;DHT22;11720;51.214;22.574;2023-08-07T02:27:15;15.10;99.90
23102;DHT22;11720;51.214;22.574;2023-08-07T02:29:41;15.10;99.90
23102;DHT22;11720;51.214;22.574;2023-08-07T02:32:07;15.20;99.90
23102;DHT22;11720;51.214;22.574;2023-08-07T02:34:33;15.30;99.90
23102;DHT22;11720;51.214;22.574;2023-08-07T02:37:01;15.20;99.90
23102;DHT22;11720;51.214;22.574;2023-08-07T02:39:27;15.20;99.90
23102;DHT22;11720;51.214;22.574;2023-08-07T02:44:19;15.20;99.90
23102;DHT22;11720;51.214;22.574;2023-08-07T02:46:45;15.20;99.90
23102;DHT22;11720;51.214;22.574;2023-08-07T02:49:11;15.20;99.90
23102;DHT22;11720;51.214;22.574;2023-08-07T02:51:36;15.20;99.90
23102;DHT22;11720;51.214;22.574;2023-08-07T02:54:02;15.20;99.90
23102;DHT22;11720;51.214;22.574;2023-08-07T02:56:28;15.20;99.90
23102;DHT22;11720;51.214;22.574;2023-08-07T02:58:53;15.20;99.90
23102;DHT22;11720;51.214;22.574;2023-08-07T03:01:20;15.20;99.90
23102;DHT22;11720;51.214;22.574;2023-08-07T03:03:47;15.20;99.90
23102;DHT22;11720;51.214;22.574;2023-08-07T03:06:13;15.20;99.90
23102;DHT22;11720;51.214;22.574;2023-08-07T03:08:38;15.10;99.90
23102;DHT22;11720;51.214;22.574;2023-08-07T03:11:04;15.20;99.90
23102;DHT22;11720;51.214;22.574;2023-08-07T03:16:00;15.20;99.90
23102;DHT22;11720;51.214;22.574;2023-08-07T03:18:27;15.20;99.90
23102;DHT22;11720;51.214;22.574;2023-08-07T03:20:54;15.20;99.90
23102;DHT22;11720;51.214;22.574;2023-08-07T03:23:19;15.20;99.90
23102;DHT22;11720;51.214;22.574;2023-08-07T03:25:45;15.20;99.90
23102;DHT22;11720;51.214;22.574;2023-08-07T03:28:11;15.20;99.90
23102;DHT22;11720;51.214;22.574;2023-08-07T03:30:36;15.20;99.90
23102;DHT22;11720;51.214;22.574;2023-08-07T03:33:03;15.20;99.90
23102;DHT22;11720;51.214;22.574;2023-08-07T03:35:29;15.20;99.90
23102;DHT22;11720;51.214;22.574;2023-08-07T03:37:54;15.20;99.90
23102;DHT22;11720;51.214;22.574;2023-08-07T03:40:20;15.10;99.90
23102;DHT22;11720;51.214;22.574;2023-08-07T03:42:45;15.10;99.90
23102;DHT22;11720;51.214;22.574;2023-08-07T03:45:11;15.10;99.90
23102;DHT22;11720;51.214;22.574;2023-08-07T03:50:03;15.10;99.90
23102;DHT22;11720;51.214;22.574;2023-08-07T03:52:29;15.10;99.90
23102;DHT22;11720;51.214;22.574;2023-08-07T03:54:54;15.10;99.90
23102;DHT22;11720;51.214;22.574;2023-08-07T03:57:20;15.10;99.90
23102;DHT22;11720;51.214;22.574;2023-08-07T04:02:12;15.10;99.90
23102;DHT22;11720;51.214;22.574;2023-08-07T04:07:04;15.10;99.90
23102;DHT22;11720;51.214;22.574;2023-08-07T04:11:55;15.10;99.90
23102;DHT22;11720;51.214;22.574;2023-08-07T04:14:21;15.40;99.90
23102;DHT22;11720;51.214;22.574;2023-08-07T04:16:47;15.20;99.90
23102;DHT22;11720;51.214;22.574;2023-08-07T04:21:41;15.30;99.90
23102;DHT22;11720;51.214;22.574;2023-08-07T04:24:06;15.20;99.90
23102;DHT22;11720;51.214;22.574;2023-08-07T04:26:35;15.20;99.90
23102;DHT22;11720;51.214;22.574;2023-08-07T04:29:02;15.20;99.90
23102;DHT22;11720;51.214;22.574;2023-08-07T04:31:28;15.20;99.90
23102;DHT22;11720;51.214;22.574;2023-08-07T04:33:56;15.20;99.90
23102;DHT22;11720;51.214;22.574;2023-08-07T04:36:22;15.20;99.90
23102;DHT22;11720;51.214;22.574;2023-08-07T04:38:50;15.20;99.90
23102;DHT22;11720;51.214;22.574;2023-08-07T04:41:16;15.40;99.90
23102;DHT22;11720;51.214;22.574;2023-08-07T04:43:41;15.20;99.90
23102;DHT22;11720;51.214;22.574;2023-08-07T04:46:10;15.20;99.90
23102;DHT22;11720;51.214;22.574;2023-08-07T04:48:37;15.30;99.90
23102;DHT22;11720;51.214;22.574;2023-08-07T04:51:03;15.40;99.90
23102;DHT22;11720;51.214;22.574;2023-08-07T04:55:54;15.40;99.90
23102;DHT22;11720;51.214;22.574;2023-08-07T05:00:46;15.40;99.90
23102;DHT22;11720;51.214;22.574;2023-08-07T05:03:12;15.40;99.90
23102;DHT22;11720;51.214;22.574;2023-08-07T05:05:38;15.40;99.90
23102;DHT22;11720;51.214;22.574;2023-08-07T05:08:04;15.40;99.90
23102;DHT22;11720;51.214;22.574;2023-08-07T05:12:55;15.40;99.90
23102;DHT22;11720;51.214;22.574;2023-08-07T05:15:25;15.40;99.90
23102;DHT22;11720;51.214;22.574;2023-08-07T05:17:51;15.40;99.90
23102;DHT22;11720;51.214;22.574;2023-08-07T05:20:17;15.50;99.90
23102;DHT22;11720;51.214;22.574;2023-08-07T05:25:09;15.40;99.90
23102;DHT22;11720;51.214;22.574;2023-08-07T05:27:37;15.40;99.90
23102;DHT22;11720;51.214;22.574;2023-08-07T05:30:03;15.40;99.90
23102;DHT22;11720;51.214;22.574;2023-08-07T05:32:29;15.40;99.90
23102;DHT22;11720;51.214;22.574;2023-08-07T05:34:55;15.40;99.90
23102;DHT22;11720;51.214;22.574;2023-08-07T05:37:21;15.40;99.90
23102;DHT22;11720;51.214;22.574;2023-08-07T05:39:46;15.50;99.90
23102;DHT22;11720;51.214;22.574;2023-08-07T05:42:12;15.50;99.90
23102;DHT22;11720;51.214;22.574;2023-08-07T05:44:38;15.40;99.90
23102;DHT22;11720;51.214;22.574;2023-08-07T05:47:04;15.40;99.90
23102;DHT22;11720;51.214;22.574;2023-08-07T05:49:30;15.40;99.90
23102;DHT22;11720;51.214;22.574;2023-08-07T05:51:55;15.30;99.90
23102;DHT22;11720;51.214;22.574;2023-08-07T05:54:21;15.30;99.90
23102;DHT22;11720;51.214;22.574;2023-08-07T05:56:47;15.30;99.90
23102;DHT22;11720;51.214;22.574;2023-08-07T05:59:13;17.90;99.90
23102;DHT22;11720;51.214;22.574;2023-08-07T06:01:38;15.40;99.90
23102;DHT22;11720;51.214;22.574;2023-08-07T06:06:30;15.50;99.90
23102;DHT22;11720;51.214;22.574;2023-08-07T06:08:59;15.60;99.90
23102;DHT22;11720;51.214;22.574;2023-08-07T06:11:25;15.70;99.90
23102;DHT22;11720;51.214;22.574;2023-08-07T06:13:51;15.70;99.90
23102;DHT22;11720;51.214;22.574;2023-08-07T06:16:16;15.70;99.90
23102;DHT22;11720;51.214;22.574;2023-08-07T06:18:43;15.70;99.90
23102;DHT22;11720;51.214;22.574;2023-08-07T06:21:08;15.70;99.90
23102;DHT22;11720;51.214;22.574;2023-08-07T06:23:37;15.60;99.90
23102;DHT22;11720;51.214;22.574;2023-08-07T06:26:02;15.60;99.90
23102;DHT22;11720;51.214;22.574;2023-08-07T06:28:32;15.70;99.90
23102;DHT22;11720;51.214;22.574;2023-08-07T06:31:06;15.60;99.90
23102;DHT22;11720;51.214;22.574;2023-08-07T06:33:33;15.70;99.90
23102;DHT22;11720;51.214;22.574;2023-08-07T06:35:59;15.60;99.90
23102;DHT22;11720;51.214;22.574;2023-08-07T06:38:25;15.70;99.90
23102;DHT22;11720;51.214;22.574;2023-08-07T06:40:50;15.80;99.90
23102;DHT22;11720;51.214;22.574;2023-08-07T06:43:16;15.80;99.90
23102;DHT22;11720;51.214;22.574;2023-08-07T06:45:42;15.80;99.90
23102;DHT22;11720;51.214;22.574;2023-08-07T06:48:07;16.00;99.90
23102;DHT22;11720;51.214;22.574;2023-08-07T06:50:33;16.00;99.90
23102;DHT22;11720;51.214;22.574;2023-08-07T06:52:59;16.10;99.90
23102;DHT22;11720;51.214;22.574;2023-08-07T06:55:25;16.20;99.90
23102;DHT22;11720;51.214;22.574;2023-08-07T06:57:51;16.30;99.90
23102;DHT22;11720;51.214;22.574;2023-08-07T07:00:25;16.40;99.90
23102;DHT22;11720;51.214;22.574;2023-08-07T07:02:50;16.40;99.90
23102;DHT22;11720;51.214;22.574;2023-08-07T07:05:19;16.40;99.90
23102;DHT22;11720;51.214;22.574;2023-08-07T07:07:45;16.20;99.90
23102;DHT22;11720;51.214;22.574;2023-08-07T07:10:10;16.60;99.90
23102;DHT22;11720;51.214;22.574;2023-08-07T07:12:36;16.30;99.90
23102;DHT22;11720;51.214;22.574;2023-08-07T07:15:02;16.30;99.90
23102;DHT22;11720;51.214;22.574;2023-08-07T07:17:28;16.40;99.90
23102;DHT22;11720;51.214;22.574;2023-08-07T07:22:22;15.70;99.90
23102;DHT22;11720;51.214;22.574;2023-08-07T07:24:48;16.50;99.90
23102;DHT22;11720;51.214;22.574;2023-08-07T07:27:13;16.50;99.90
23102;DHT22;11720;51.214;22.574;2023-08-07T07:29:39;16.60;99.90
23102;DHT22;11720;51.214;22.574;2023-08-07T07:32:05;16.70;99.90
23102;DHT22;11720;51.214;22.574;2023-08-07T07:34:31;16.80;99.90
23102;DHT22;11720;51.214;22.574;2023-08-07T07:36:58;16.80;99.90
23102;DHT22;11720;51.214;22.574;2023-08-07T07:39:26;17.00;99.90
23102;DHT22;11720;51.214;22.574;2023-08-07T07:44:18;17.30;99.90
23102;DHT22;11720;51.214;22.574;2023-08-07T07:46:44;17.50;99.90
23102;DHT22;11720;51.214;22.574;2023-08-07T07:51:36;17.50;99.90
23102;DHT22;11720;51.214;22.574;2023-08-07T07:54:03;17.40;99.90
23102;DHT22;11720;51.214;22.574;2023-08-07T07:56:28;17.60;99.90
23102;DHT22;11720;51.214;22.574;2023-08-07T07:58:54;17.50;99.90
23102;DHT22;11720;51.214;22.574;2023-08-07T08:01:22;17.50;99.90
23102;DHT22;11720;51.214;22.574;2023-08-07T08:03:49;17.90;99.90
23102;DHT22;11720;51.214;22.574;2023-08-07T08:06:14;17.50;99.90
23102;DHT22;11720;51.214;22.574;2023-08-07T08:08:41;18.20;99.90
23102;DHT22;11720;51.214;22.574;2023-08-07T08:11:08;17.50;99.90
23102;DHT22;11720;51.214;22.574;2023-08-07T08:13:34;17.60;99.90
23102;DHT22;11720;51.214;22.574;2023-08-07T08:16:05;17.70;99.90
23102;DHT22;11720;51.214;22.574;2023-08-07T08:18:31;18.30;99.90
23102;DHT22;11720;51.214;22.574;2023-08-07T08:20:59;18.00;99.90
23102;DHT22;11720;51.214;22.574;2023-08-07T08:23:27;17.60;99.90
23102;DHT22;11720;51.214;22.574;2023-08-07T08:25:54;18.00;99.90
23102;DHT22;11720;51.214;22.574;2023-08-07T08:28:20;18.30;99.90
23102;DHT22;11720;51.214;22.574;2023-08-07T08:30:46;18.00;99.90
23102;DHT22;11720;51.214;22.574;2023-08-07T08:33:12;18.40;99.90
23102;DHT22;11720;51.214;22.574;2023-08-07T08:35:40;18.40;99.90
23102;DHT22;11720;51.214;22.574;2023-08-07T08:38:08;18.40;99.90
23102;DHT22;11720;51.214;22.574;2023-08-07T08:40:36;18.50;99.90
23102;DHT22;11720;51.214;22.574;2023-08-07T08:43:05;18.80;99.90
23102;DHT22;11720;51.214;22.574;2023-08-07T08:45:31;19.00;99.90
23102;DHT22;11720;51.214;22.574;2023-08-07T08:48:02;18.80;99.90
23102;DHT22;11720;51.214;22.574;2023-08-07T08:50:32;18.70;99.90
23102;DHT22;11720;51.214;22.574;2023-08-07T08:52:59;19.00;99.90
23102;DHT22;11720;51.214;22.574;2023-08-07T08:55:26;18.80;99.90
23102;DHT22;11720;51.214;22.574;2023-08-07T08:57:52;18.90;99.90
23102;DHT22;11720;51.214;22.574;2023-08-07T09:00:23;19.50;99.90
23102;DHT22;11720;51.214;22.574;2023-08-07T09:02:54;19.00;99.90
23102;DHT22;11720;51.214;22.574;2023-08-07T09:05:21;19.40;99.90
23102;DHT22;11720;51.214;22.574;2023-08-07T09:07:48;19.10;99.90
23102;DHT22;11720;51.214;22.574;2023-08-07T09:10:15;19.80;99.90
23102;DHT22;11720;51.214;22.574;2023-08-07T09:13:11;19.60;99.90
23102;DHT22;11720;51.214;22.574;2023-08-07T09:15:35;19.50;99.90
23102;DHT22;11720;51.214;22.574;2023-08-07T09:18:05;19.40;99.90
23102;DHT22;11720;51.214;22.574;2023-08-07T09:20:34;19.50;99.90
23102;DHT22;11720;51.214;22.574;2023-08-07T09:23:00;19.70;99.90
23102;DHT22;11720;51.214;22.574;2023-08-07T09:25:27;19.30;99.90
23102;DHT22;11720;51.214;22.574;2023-08-07T09:27:55;19.40;99.90
23102;DHT22;11720;51.214;22.574;2023-08-07T09:30:21;19.30;99.90
23102;DHT22;11720;51.214;22.574;2023-08-07T09:32:49;19.40;99.90
23102;DHT22;11720;51.214;22.574;2023-08-07T09:35:15;19.40;99.90
23102;DHT22;11720;51.214;22.574;2023-08-07T09:37:46;19.50;98.20
23102;DHT22;11720;51.214;22.574;2023-08-07T09:40:12;18.20;99.60
23102;DHT22;11720;51.214;22.574;2023-08-07T09:42:40;19.60;99.90
23102;DHT22;11720;51.214;22.574;2023-08-07T09:45:27;19.80;99.90
23102;DHT22;11720;51.214;22.574;2023-08-07T09:48:06;20.60;99.90
23102;DHT22;11720;51.214;22.574;2023-08-07T09:50:32;20.20;98.70
23102;DHT22;11720;51.214;22.574;2023-08-07T09:53:01;20.20;96.10
23102;DHT22;11720;51.214;22.574;2023-08-07T09:55:27;20.60;94.80
23102;DHT22;11720;51.214;22.574;2023-08-07T09:58:01;20.60;99.10
23102;DHT22;11720;51.214;22.574;2023-08-07T10:00:39;20.30;97.20
23102;DHT22;11720;51.214;22.574;2023-08-07T10:08:05;20.90;96.00
23102;DHT22;11720;51.214;22.574;2023-08-07T10:10:32;20.60;95.20
23102;DHT22;11720;51.214;22.574;2023-08-07T10:13:00;20.30;96.20
23102;DHT22;11720;51.214;22.574;2023-08-07T10:15:27;20.50;95.10
23102;DHT22;11720;51.214;22.574;2023-08-07T10:17:57;20.40;94.40
23102;DHT22;11720;51.214;22.574;2023-08-07T10:20:24;21.50;96.60
23102;DHT22;11720;51.214;22.574;2023-08-07T10:22:54;21.10;92.90
23102;DHT22;11720;51.214;22.574;2023-08-07T10:25:23;20.80;93.50
23102;DHT22;11720;51.214;22.574;2023-08-07T10:27:53;21.00;92.10
23102;DHT22;11720;51.214;22.574;2023-08-07T10:30:19;21.30;92.60
23102;DHT22;11720;51.214;22.574;2023-08-07T10:32:46;20.90;93.60
23102;DHT22;11720;51.214;22.574;2023-08-07T10:35:29;20.80;94.00
23102;DHT22;11720;51.214;22.574;2023-08-07T10:38:08;20.90;94.20
23102;DHT22;11720;51.214;22.574;2023-08-07T10:43:37;20.60;92.30
23102;DHT22;11720;51.214;22.574;2023-08-07T10:46:04;20.60;92.20
23102;DHT22;11720;51.214;22.574;2023-08-07T10:48:41;20.70;91.50
23102;DHT22;11720;51.214;22.574;2023-08-07T10:51:07;19.90;90.90
23102;DHT22;11720;51.214;22.574;2023-08-07T10:53:39;20.30;92.70
23102;DHT22;11720;51.214;22.574;2023-08-07T10:56:17;20.40;92.00
23102;DHT22;11720;51.214;22.574;2023-08-07T10:58:52;20.60;91.20
23102;DHT22;11720;51.214;22.574;2023-08-07T11:04:10;20.40;89.60
23102;DHT22;11720;51.214;22.574;2023-08-07T11:06:40;20.30;91.10
23102;DHT22;11720;51.214;22.574;2023-08-07T11:09:09;20.20;90.40
23102;DHT22;11720;51.214;22.574;2023-08-07T11:11:42;17.70;90.40
23102;DHT22;11720;51.214;22.574;2023-08-07T11:14:12;20.10;91.70
23102;DHT22;11720;51.214;22.574;2023-08-07T11:16:39;20.20;91.10
23102;DHT22;11720;51.214;22.574;2023-08-07T11:19:05;20.30;92.20
23102;DHT22;11720;51.214;22.574;2023-08-07T11:21:32;20.00;90.60
23102;DHT22;11720;51.214;22.574;2023-08-07T11:23:58;20.30;93.30
23102;DHT22;11720;51.214;22.574;2023-08-07T11:28:59;20.60;91.70
23102;DHT22;11720;51.214;22.574;2023-08-07T11:33:58;20.40;90.30
23102;DHT22;11720;51.214;22.574;2023-08-07T11:36:24;20.50;93.10
23102;DHT22;11720;51.214;22.574;2023-08-07T11:41:17;20.60;89.70
23102;DHT22;11720;51.214;22.574;2023-08-07T11:43:44;20.70;91.00
23102;DHT22;11720;51.214;22.574;2023-08-07T11:46:14;20.80;91.30
23102;DHT22;11720;51.214;22.574;2023-08-07T11:48:43;21.00;90.70
23102;DHT22;11720;51.214;22.574;2023-08-07T11:53:37;21.20;87.30
23102;DHT22;11720;51.214;22.574;2023-08-07T11:58:36;21.10;91.10
23102;DHT22;11720;51.214;22.574;2023-08-07T12:01:10;19.30;88.40
23102;DHT22;11720;51.214;22.574;2023-08-07T12:03:37;20.60;88.20
23102;DHT22;11720;51.214;22.574;2023-08-07T12:06:07;20.50;90.20
23102;DHT22;11720;51.214;22.574;2023-08-07T12:08:40;20.50;89.60
23102;DHT22;11720;51.214;22.574;2023-08-07T12:11:10;20.30;87.70
23102;DHT22;11720;51.214;22.574;2023-08-07T12:13:46;20.40;90.30
23102;DHT22;11720;51.214;22.574;2023-08-07T12:16:16;18.90;91.10
23102;DHT22;11720;51.214;22.574;2023-08-07T12:18:46;22.40;91.80
23102;DHT22;11720;51.214;22.574;2023-08-07T12:21:18;20.80;90.60
23102;DHT22;11720;51.214;22.574;2023-08-07T12:23:54;20.80;91.60
23102;DHT22;11720;51.214;22.574;2023-08-07T12:26:20;20.80;90.80
23102;DHT22;11720;51.214;22.574;2023-08-07T12:31:12;21.00;88.90
23102;DHT22;11720;51.214;22.574;2023-08-07T12:33:38;19.40;91.30
23102;DHT22;11720;51.214;22.574;2023-08-07T12:36:06;21.10;91.30
23102;DHT22;11720;51.214;22.574;2023-08-07T12:38:33;21.00;88.80
23102;DHT22;11720;51.214;22.574;2023-08-07T12:43:28;21.00;84.10
23102;DHT22;11720;51.214;22.574;2023-08-07T12:45:53;20.90;86.50
23102;DHT22;11720;51.214;22.574;2023-08-07T12:50:46;21.10;84.30
23102;DHT22;11720;51.214;22.574;2023-08-07T12:53:11;21.20;88.20
23102;DHT22;11720;51.214;22.574;2023-08-07T12:58:03;21.30;84.00
23102;DHT22;11720;51.214;22.574;2023-08-07T13:00:29;21.60;89.60
23102;DHT22;11720;51.214;22.574;2023-08-07T13:02:57;21.50;90.90
23102;DHT22;11720;51.214;22.574;2023-08-07T13:05:24;21.30;90.90
23102;DHT22;11720;51.214;22.574;2023-08-07T13:07:51;21.30;89.90
23102;DHT22;11720;51.214;22.574;2023-08-07T13:10:20;21.40;87.60
23102;DHT22;11720;51.214;22.574;2023-08-07T13:12:47;20.90;89.50
23102;DHT22;11720;51.214;22.574;2023-08-07T13:17:43;21.60;82.50
23102;DHT22;11720;51.214;22.574;2023-08-07T13:20:18;21.80;86.80
23102;DHT22;11720;51.214;22.574;2023-08-07T13:22:45;21.70;87.60
23102;DHT22;11720;51.214;22.574;2023-08-07T13:25:12;21.00;83.30
23102;DHT22;11720;51.214;22.574;2023-08-07T13:27:39;21.70;81.40
23102;DHT22;11720;51.214;22.574;2023-08-07T13:30:09;21.90;82.90
23102;DHT22;11720;51.214;22.574;2023-08-07T13:32:37;21.70;82.80
23102;DHT22;11720;51.214;22.574;2023-08-07T13:35:03;21.60;84.50
23102;DHT22;11720;51.214;22.574;2023-08-07T13:37:30;21.40;83.40
23102;DHT22;11720;51.214;22.574;2023-08-07T13:39:55;21.40;84.70
23102;DHT22;11720;51.214;22.574;2023-08-07T13:42:24;21.20;82.50
23102;DHT22;11720;51.214;22.574;2023-08-07T13:44:51;21.00;84.00
23102;DHT22;11720;51.214;22.574;2023-08-07T13:49:47;20.80;82.40
23102;DHT22;11720;51.214;22.574;2023-08-07T13:52:13;20.70;85.50
23102;DHT22;11720;51.214;22.574;2023-08-07T14:01:58;20.50;83.80
23102;DHT22;11720;51.214;22.574;2023-08-07T14:11:47;20.20;86.60
23102;DHT22;11720;51.214;22.574;2023-08-07T14:19:05;19.90;88.20
23102;DHT22;11720;51.214;22.574;2023-08-07T14:23:57;19.70;89.20
23102;DHT22;11720;51.214;22.574;2023-08-07T14:26:22;19.70;91.80
23102;DHT22;11720;51.214;22.574;2023-08-07T14:31:14;19.60;90.20
23102;DHT22;11720;51.214;22.574;2023-08-07T14:36:06;19.50;90.30
23102;DHT22;11720;51.214;22.574;2023-08-07T14:40:58;19.50;90.30
23102;DHT22;11720;51.214;22.574;2023-08-07T14:43:30;16.20;92.50
23102;DHT22;11720;51.214;22.574;2023-08-07T14:48:43;19.40;92.80
23102;DHT22;11720;51.214;22.574;2023-08-07T14:58:28;19.30;90.80
23102;DHT22;11720;51.214;22.574;2023-08-07T15:06:47;19.10;90.80
23102;DHT22;11720;51.214;22.574;2023-08-07T15:09:16;19.60;92.50
23102;DHT22;11720;51.214;22.574;2023-08-07T15:11:42;19.00;93.20
23102;DHT22;11720;51.214;22.574;2023-08-07T15:14:11;19.40;92.10
23102;DHT22;11720;51.214;22.574;2023-08-07T15:16:39;19.00;92.10
23102;DHT22;11720;51.214;22.574;2023-08-07T15:19:05;19.00;93.40
23102;DHT22;11720;51.214;22.574;2023-08-07T15:21:36;18.90;94.10
23102;DHT22;11720;51.214;22.574;2023-08-07T15:24:07;18.90;94.30
23102;DHT22;11720;51.214;22.574;2023-08-07T15:26:36;18.90;95.80
23102;DHT22;11720;51.214;22.574;2023-08-07T15:31:29;19.00;92.50
23102;DHT22;11720;51.214;22.574;2023-08-07T15:33:55;19.00;94.50
23102;DHT22;11720;51.214;22.574;2023-08-07T15:38:49;19.10;92.50
23102;DHT22;11720;51.214;22.574;2023-08-07T15:41:17;17.80;94.50
23102;DHT22;11720;51.214;22.574;2023-08-07T15:44:06;20.00;95.20
23102;DHT22;11720;51.214;22.574;2023-08-07T15:46:40;20.40;95.30
23102;DHT22;11720;51.214;22.574;2023-08-07T15:49:21;19.60;94.00
23102;DHT22;11720;51.214;22.574;2023-08-07T15:51:49;19.30;95.30
23102;DHT22;11720;51.214;22.574;2023-08-07T15:54:17;19.20;93.80
23102;DHT22;11720;51.214;22.574;2023-08-07T15:56:44;19.70;94.80
23102;DHT22;11720;51.214;22.574;2023-08-07T16:01:36;19.00;94.50
23102;DHT22;11720;51.214;22.574;2023-08-07T16:04:02;19.60;95.80
23102;DHT22;11720;51.214;22.574;2023-08-07T16:06:28;19.20;97.00
23102;DHT22;11720;51.214;22.574;2023-08-07T16:11:23;19.10;94.50
23102;DHT22;11720;51.214;22.574;2023-08-07T16:16:17;19.10;95.30
23102;DHT22;11720;51.214;22.574;2023-08-07T16:21:12;19.30;95.50
23102;DHT22;11720;51.214;22.574;2023-08-07T16:23:41;19.60;96.40
23102;DHT22;11720;51.214;22.574;2023-08-07T16:26:07;18.70;96.60
23102;DHT22;11720;51.214;22.574;2023-08-07T16:31:22;19.30;96.40
23102;DHT22;11720;51.214;22.574;2023-08-07T16:33:51;19.80;97.40
23102;DHT22;11720;51.214;22.574;2023-08-07T16:36:16;20.00;99.10
23102;DHT22;11720;51.214;22.574;2023-08-07T16:38:53;19.50;98.60
23102;DHT22;11720;51.214;22.574;2023-08-07T16:41:29;19.60;99.80
23102;DHT22;11720;51.214;22.574;2023-08-07T16:43:55;19.30;99.90
23102;DHT22;11720;51.214;22.574;2023-08-07T16:46:23;19.40;98.30
23102;DHT22;11720;51.214;22.574;2023-08-07T16:48:51;19.80;99.90
23102;DHT22;11720;51.214;22.574;2023-08-07T16:51:20;19.30;99.60
23102;DHT22;11720;51.214;22.574;2023-08-07T16:53:45;19.10;98.80
23102;DHT22;11720;51.214;22.574;2023-08-07T16:58:38;18.90;98.50
23102;DHT22;11720;51.214;22.574;2023-08-07T17:01:06;19.10;99.90
23102;DHT22;11720;51.214;22.574;2023-08-07T17:03:32;19.10;99.90
23102;DHT22;11720;51.214;22.574;2023-08-07T17:05:58;18.70;99.90
23102;DHT22;11720;51.214;22.574;2023-08-07T17:08:26;18.60;99.90
23102;DHT22;11720;51.214;22.574;2023-08-07T17:11:00;18.50;99.90
23102;DHT22;11720;51.214;22.574;2023-08-07T17:13:26;18.50;99.90
23102;DHT22;11720;51.214;22.574;2023-08-07T17:15:52;18.30;99.90
23102;DHT22;11720;51.214;22.574;2023-08-07T17:18:17;18.20;99.90
23102;DHT22;11720;51.214;22.574;2023-08-07T17:23:12;18.00;99.90
23102;DHT22;11720;51.214;22.574;2023-08-07T17:28:04;17.80;99.90
23102;DHT22;11720;51.214;22.574;2023-08-07T17:30:30;18.20;99.90
23102;DHT22;11720;51.214;22.574;2023-08-07T17:32:58;17.90;99.90
23102;DHT22;11720;51.214;22.574;2023-08-07T17:35:24;17.70;99.90
23102;DHT22;11720;51.214;22.574;2023-08-07T17:40:16;17.50;99.90
23102;DHT22;11720;51.214;22.574;2023-08-07T17:42:42;17.60;99.90
23102;DHT22;11720;51.214;22.574;2023-08-07T17:45:08;17.50;99.90
23102;DHT22;11720;51.214;22.574;2023-08-07T17:47:34;17.30;99.90
23102;DHT22;11720;51.214;22.574;2023-08-07T17:52:26;17.20;99.90
23102;DHT22;11720;51.214;22.574;2023-08-07T17:54:55;17.20;99.90
23102;DHT22;11720;51.214;22.574;2023-08-07T17:59:46;17.20;99.90
23102;DHT22;11720;51.214;22.574;2023-08-07T18:04:38;17.10;99.90